Time,TemperatureF,DewpointF,PressureIn,WindDirection,WindDirectionDegrees,WindSpeedMPH,WindSpeedGustMPH,Humidity,HourlyPrecipIn,Conditions,Clouds,dailyrainin,SoftwareType,DateUTC
2013-05-18 00:02:00,68.0,62.3,29.20,East,90,0.0,0.0,82,0.00,,---,0.00,VWS V14.01,2013-05-18 05:02:00,
2013-05-18 00:07:00,67.8,62.5,29.17,East,90,0.0,0.0,83,0.00,,---,0.00,VWS V14.01,2013-05-18 05:07:00,
2013-05-18 00:12:00,67.8,62.5,29.17,SSW,202,0.0,0.0,83,0.00,,---,0.00,VWS V14.01,2013-05-18 05:12:00,
2013-05-18 00:17:00,67.6,62.6,29.17,SSE,158,0.0,0.0,84,0.00,,---,0.00,VWS V14.01,2013-05-18 05:17:00,
2013-05-18 00:22:00,67.5,62.5,29.17,SSE,158,0.0,0.0,84,0.00,,---,0.00,VWS V14.01,2013-05-18 05:22:00,
2013-05-18 00:28:00,67.5,62.5,29.17,SSE,158,0.0,0.0,84,0.00,,---,0.00,VWS V14.01,2013-05-18 05:28:00,
2013-05-18 00:33:00,67.5,62.5,29.17,SSE,158,0.0,0.0,84,0.00,,---,0.00,VWS V14.01,2013-05-18 05:33:00,
2013-05-18 00:38:00,67.1,62.1,29.17,ENE,68,0.0,0.0,84,0.00,,---,0.00,VWS V14.01,2013-05-18 05:38:00,
2013-05-18 00:43:00,66.9,62.3,29.17,NE,45,0.0,0.0,85,0.00,,---,0.00,VWS V14.01,2013-05-18 05:43:00,
2013-05-18 00:48:00,66.9,62.3,29.17,East,90,0.0,0.0,85,0.00,,---,0.00,VWS V14.01,2013-05-18 05:48:00,
2013-05-18 00:53:00,66.7,62.1,29.17,ENE,68,1.3,1.3,85,0.00,,---,0.00,VWS V14.01,2013-05-18 05:53:00,
2013-05-18 00:58:00,66.7,62.1,29.17,East,90,0.0,0.0,85,0.00,,---,0.00,VWS V14.01,2013-05-18 05:58:00,
2013-05-18 01:03:00,66.6,61.9,29.17,East,90,0.0,0.0,85,0.00,,---,0.00,VWS V14.01,2013-05-18 06:03:00,
2013-05-18 01:08:00,66.4,61.7,29.17,ESE,112,0.0,0.0,85,0.00,,---,0.00,VWS V14.01,2013-05-18 06:08:00,
2013-05-18 01:13:00,66.2,61.6,29.17,East,90,0.0,0.0,85,0.00,,---,0.00,VWS V14.01,2013-05-18 06:13:00,
2013-05-18 01:18:00,66.2,61.9,29.17,ESE,112,0.0,0.0,86,0.00,,---,0.00,VWS V14.01,2013-05-18 06:18:00,
2013-05-18 01:24:00,66.0,61.7,29.17,East,90,0.0,0.0,86,0.00,,---,0.00,VWS V14.01,2013-05-18 06:24:00,
2013-05-18 01:29:00,66.0,62.0,29.17,SE,135,0.0,0.0,87,0.00,,---,0.00,VWS V14.01,2013-05-18 06:29:00,
2013-05-18 01:34:00,65.8,61.9,29.17,SE,135,2.7,2.7,87,0.00,,---,0.00,VWS V14.01,2013-05-18 06:34:00,
2013-05-18 01:39:00,65.7,61.7,29.17,SE,135,0.0,0.0,87,0.00,,---,0.00,VWS V14.01,2013-05-18 06:39:00,
2013-05-18 01:44:00,65.7,61.7,29.17,SSW,202,0.9,0.9,87,0.00,,---,0.00,VWS V14.01,2013-05-18 06:44:00,
2013-05-18 01:49:00,65.7,61.7,29.17,ENE,68,0.0,0.9,87,0.00,,---,0.00,VWS V14.01,2013-05-18 06:49:00,
2013-05-18 01:54:00,65.5,61.5,29.17,ESE,112,1.6,1.6,87,0.00,,---,0.00,VWS V14.01,2013-05-18 06:54:00,
2013-05-18 01:59:00,65.5,61.5,29.17,SSE,158,0.0,0.0,87,0.00,,---,0.00,VWS V14.01,2013-05-18 06:59:00,
2013-05-18 02:04:00,65.3,61.7,29.17,East,90,0.0,0.0,88,0.00,,---,0.00,VWS V14.01,2013-05-18 07:04:00,
2013-05-18 02:09:00,65.3,61.3,29.17,South,180,0.0,0.0,87,0.00,,---,0.00,VWS V14.01,2013-05-18 07:09:00,
2013-05-18 02:14:00,65.3,61.7,29.17,SW,225,0.0,0.0,88,0.00,,---,0.00,VWS V14.01,2013-05-18 07:14:00,
2013-05-18 02:19:00,65.3,61.3,29.17,SSE,158,1.1,1.1,87,0.00,,---,0.00,VWS V14.01,2013-05-18 07:19:00,
2013-05-18 02:24:00,65.3,61.3,29.17,South,180,0.9,0.9,87,0.00,,---,0.00,VWS V14.01,2013-05-18 07:24:00,
2013-05-18 02:29:00,65.1,61.2,29.17,SE,135,0.0,0.0,87,0.00,,---,0.00,VWS V14.01,2013-05-18 07:29:00,
2013-05-18 02:35:00,65.1,61.2,29.17,South,180,1.1,1.1,87,0.00,,---,0.00,VWS V14.01,2013-05-18 07:35:00,
2013-05-18 02:40:00,64.9,61.3,29.17,SW,225,0.0,0.0,88,0.00,,---,0.00,VWS V14.01,2013-05-18 07:40:00,
2013-05-18 02:45:00,64.9,61.0,29.17,ESE,112,0.0,0.0,87,0.00,,---,0.00,VWS V14.01,2013-05-18 07:45:00,
2013-05-18 02:50:00,64.9,61.3,29.17,SE,135,1.6,1.6,88,0.00,,---,0.00,VWS V14.01,2013-05-18 07:50:00,
2013-05-18 02:55:00,64.8,61.1,29.17,SE,135,2.5,2.5,88,0.00,,---,0.00,VWS V14.01,2013-05-18 07:55:00,
2013-05-18 03:00:00,64.8,61.1,29.17,NW,315,0.0,1.1,88,0.00,,---,0.00,VWS V14.01,2013-05-18 08:00:00,
2013-05-18 03:05:00,64.8,61.1,29.17,SW,225,0.0,0.0,88,0.00,,---,0.00,VWS V14.01,2013-05-18 08:05:00,
2013-05-18 03:10:00,64.8,61.1,29.17,ESE,112,0.9,0.9,88,0.00,,---,0.00,VWS V14.01,2013-05-18 08:10:00,
2013-05-18 03:15:00,64.8,61.1,29.17,SE,135,0.0,0.0,88,0.00,,---,0.00,VWS V14.01,2013-05-18 08:15:00,
2013-05-18 03:20:00,64.8,61.5,29.17,SE,135,2.0,2.5,89,0.00,,---,0.00,VWS V14.01,2013-05-18 08:20:00,
2013-05-18 03:25:00,64.8,61.5,29.17,SSE,158,0.0,0.0,89,0.00,,---,0.00,VWS V14.01,2013-05-18 08:25:00,
2013-05-18 03:30:00,64.8,61.5,29.17,South,180,1.3,1.3,89,0.00,,---,0.00,VWS V14.01,2013-05-18 08:30:00,
2013-05-18 03:36:00,64.8,61.5,29.17,South,180,0.0,0.0,89,0.00,,---,0.00,VWS V14.01,2013-05-18 08:36:00,
2013-05-18 03:41:00,64.8,61.5,29.17,SSE,158,0.0,0.0,89,0.00,,---,0.00,VWS V14.01,2013-05-18 08:41:00,
2013-05-18 03:46:00,64.8,61.5,29.17,South,180,0.0,0.0,89,0.00,,---,0.00,VWS V14.01,2013-05-18 08:46:00,
2013-05-18 03:51:00,64.8,61.5,29.17,South,180,1.1,2.2,89,0.00,,---,0.00,VWS V14.01,2013-05-18 08:51:00,
2013-05-18 03:56:00,64.9,61.6,29.20,East,90,0.0,2.0,89,0.00,,---,0.00,VWS V14.01,2013-05-18 08:56:00,
2013-05-18 04:01:00,64.9,61.6,29.20,ESE,112,3.8,3.8,89,0.00,,---,0.00,VWS V14.01,2013-05-18 09:01:00,
2013-05-18 04:06:00,64.9,61.6,29.20,SSE,158,0.0,1.6,89,0.00,,---,0.00,VWS V14.01,2013-05-18 09:06:00,
2013-05-18 04:11:00,64.8,61.5,29.20,ENE,68,0.0,0.0,89,0.00,,---,0.00,VWS V14.01,2013-05-18 09:11:00,
2013-05-18 04:16:00,64.8,61.8,29.20,East,90,0.0,0.0,90,0.00,,---,0.00,VWS V14.01,2013-05-18 09:16:00,
2013-05-18 04:21:00,64.8,61.8,29.20,ENE,68,0.0,0.0,90,0.00,,---,0.00,VWS V14.01,2013-05-18 09:21:00,
2013-05-18 04:26:00,64.8,61.8,29.20,ESE,112,0.0,0.0,90,0.00,,---,0.00,VWS V14.01,2013-05-18 09:26:00,
2013-05-18 04:32:00,64.8,61.8,29.20,ESE,112,0.9,0.9,90,0.00,,---,0.00,VWS V14.01,2013-05-18 09:32:00,
2013-05-18 04:37:00,64.6,61.6,29.20,ENE,68,0.0,0.0,90,0.00,,---,0.00,VWS V14.01,2013-05-18 09:37:00,
2013-05-18 04:42:00,64.6,61.6,29.20,ENE,68,0.0,0.0,90,0.00,,---,0.00,VWS V14.01,2013-05-18 09:42:00,
2013-05-18 04:47:00,64.6,61.6,29.20,East,90,0.0,0.0,90,0.00,,---,0.00,VWS V14.01,2013-05-18 09:47:00,
2013-05-18 04:52:00,64.6,61.6,29.20,ENE,68,0.0,0.0,90,0.00,,---,0.00,VWS V14.01,2013-05-18 09:52:00,
2013-05-18 04:57:00,64.6,61.6,29.20,East,90,0.0,0.0,90,0.00,,---,0.00,VWS V14.01,2013-05-18 09:57:00,
2013-05-18 05:02:00,64.6,61.6,29.20,ESE,112,0.0,0.0,90,0.00,,---,0.00,VWS V14.01,2013-05-18 10:02:00,
2013-05-18 05:07:00,64.6,61.6,29.20,ESE,112,1.3,1.3,90,0.00,,---,0.00,VWS V14.01,2013-05-18 10:07:00,
2013-05-18 05:12:00,64.6,61.6,29.20,East,90,0.0,0.0,90,0.00,,---,0.00,VWS V14.01,2013-05-18 10:12:00,
2013-05-18 05:17:00,64.6,61.6,29.20,East,90,0.0,0.0,90,0.00,,---,0.00,VWS V14.01,2013-05-18 10:17:00,
2013-05-18 05:23:00,64.6,61.6,29.20,ESE,112,0.0,0.0,90,0.00,,---,0.00,VWS V14.01,2013-05-18 10:23:00,
2013-05-18 05:28:00,64.6,61.6,29.20,East,90,0.0,0.0,90,0.00,,---,0.00,VWS V14.01,2013-05-18 10:28:00,
2013-05-18 05:33:00,64.6,61.9,29.20,East,90,0.0,0.0,91,0.00,,---,0.00,VWS V14.01,2013-05-18 10:33:00,
2013-05-18 05:38:00,64.6,61.9,29.20,ESE,112,0.0,0.0,91,0.00,,---,0.00,VWS V14.01,2013-05-18 10:38:00,
2013-05-18 05:43:00,64.6,61.9,29.20,SE,135,0.0,0.0,91,0.00,,---,0.00,VWS V14.01,2013-05-18 10:43:00,
2013-05-18 05:48:00,64.6,61.9,29.20,ENE,68,0.0,0.0,91,0.00,,---,0.00,VWS V14.01,2013-05-18 10:48:00,
2013-05-18 05:53:00,64.8,62.1,29.20,East,90,2.0,2.0,91,0.00,,---,0.00,VWS V14.01,2013-05-18 10:53:00,
2013-05-18 05:58:00,64.8,62.1,29.20,East,90,1.1,1.1,91,0.00,,---,0.00,VWS V14.01,2013-05-18 10:58:00,
2013-05-18 06:03:00,64.8,62.1,29.20,SE,135,0.0,0.0,91,0.00,,---,0.00,VWS V14.01,2013-05-18 11:03:00,
2013-05-18 06:08:00,64.8,62.1,29.20,SSE,158,1.6,1.6,91,0.00,,---,0.00,VWS V14.01,2013-05-18 11:08:00,
2013-05-18 06:14:00,64.8,62.1,29.20,SSE,158,2.5,2.5,91,0.00,,---,0.00,VWS V14.01,2013-05-18 11:14:00,
2013-05-18 06:19:00,64.8,62.1,29.20,East,90,2.2,2.2,91,0.00,,---,0.00,VWS V14.01,2013-05-18 11:19:00,
2013-05-18 06:24:00,64.8,62.1,29.20,East,90,1.1,1.3,91,0.00,,---,0.00,VWS V14.01,2013-05-18 11:24:00,
2013-05-18 06:29:00,64.8,62.1,29.20,SE,135,1.3,2.0,91,0.00,,---,0.00,VWS V14.01,2013-05-18 11:29:00,
2013-05-18 06:34:00,64.9,62.2,29.20,East,90,1.3,2.0,91,0.00,,---,0.00,VWS V14.01,2013-05-18 11:34:00,
2013-05-18 06:39:00,64.9,62.2,29.20,ESE,112,2.0,2.0,91,0.00,,---,0.00,VWS V14.01,2013-05-18 11:39:00,
2013-05-18 06:44:00,64.9,62.2,29.20,East,90,0.0,1.6,91,0.00,,---,0.00,VWS V14.01,2013-05-18 11:44:00,
2013-05-18 06:49:00,65.1,62.4,29.20,ENE,68,0.0,0.0,91,0.00,,---,0.00,VWS V14.01,2013-05-18 11:49:00,
2013-05-18 06:54:00,65.1,62.4,29.20,SE,135,0.0,0.0,91,0.00,,---,0.00,VWS V14.01,2013-05-18 11:54:00,
2013-05-18 06:59:00,65.3,62.6,29.20,SSE,158,0.0,0.0,91,0.00,,---,0.00,VWS V14.01,2013-05-18 11:59:00,
2013-05-18 07:04:00,65.8,63.1,29.20,SE,135,0.0,0.0,91,0.00,,---,0.00,VWS V14.01,2013-05-18 12:04:00,
2013-05-18 07:09:00,66.2,63.5,29.20,ESE,112,0.0,1.1,91,0.00,,---,0.00,VWS V14.01,2013-05-18 12:09:00,
2013-05-18 07:14:00,66.4,63.4,29.20,SE,135,0.9,0.9,90,0.00,,---,0.00,VWS V14.01,2013-05-18 12:14:00,
2013-05-18 07:19:00,66.4,63.4,29.20,East,90,2.5,2.5,90,0.00,,---,0.00,VWS V14.01,2013-05-18 12:19:00,
2013-05-18 07:25:00,66.6,63.5,29.20,SSE,158,0.0,0.9,90,0.00,,---,0.00,VWS V14.01,2013-05-18 12:25:00,
2013-05-18 07:30:00,66.6,63.5,29.20,SE,135,0.0,0.0,90,0.00,,---,0.00,VWS V14.01,2013-05-18 12:30:00,
2013-05-18 07:35:00,66.6,63.5,29.20,SE,135,0.0,0.0,90,0.00,,---,0.00,VWS V14.01,2013-05-18 12:35:00,
2013-05-18 07:40:00,66.6,63.5,29.20,SE,135,0.0,0.0,90,0.00,,---,0.00,VWS V14.01,2013-05-18 12:40:00,
2013-05-18 07:45:00,66.7,63.7,29.20,East,90,0.0,0.0,90,0.00,,---,0.00,VWS V14.01,2013-05-18 12:45:00,
2013-05-18 07:50:00,67.1,64.1,29.20,East,90,0.0,0.0,90,0.00,,---,0.00,VWS V14.01,2013-05-18 12:50:00,
2013-05-18 07:55:00,67.5,64.4,29.20,East,90,0.0,0.0,90,0.00,,---,0.00,VWS V14.01,2013-05-18 12:55:00,
2013-05-18 08:00:00,67.5,64.4,29.20,SE,135,1.6,1.6,90,0.00,,---,0.00,VWS V14.01,2013-05-18 13:00:00,
2013-05-18 08:05:00,67.8,64.8,29.20,SSE,158,0.9,0.9,90,0.00,,---,0.00,VWS V14.01,2013-05-18 13:05:00,
2013-05-18 08:10:00,68.0,64.6,29.20,ESE,112,0.0,0.0,89,0.00,,---,0.00,VWS V14.01,2013-05-18 13:10:00,
2013-05-18 08:15:00,68.4,65.0,29.20,ESE,112,1.6,1.6,89,0.00,,---,0.00,VWS V14.01,2013-05-18 13:15:00,
2013-05-18 08:20:00,68.7,65.3,29.20,ESE,112,2.9,2.9,89,0.00,,---,0.00,VWS V14.01,2013-05-18 13:20:00,
2013-05-18 08:25:00,68.9,65.5,29.20,ESE,112,3.1,3.1,89,0.00,,---,0.00,VWS V14.01,2013-05-18 13:25:00,
2013-05-18 08:30:00,69.3,65.6,29.20,ESE,112,4.0,4.0,88,0.00,,---,0.00,VWS V14.01,2013-05-18 13:30:00,
2013-05-18 08:35:00,70.5,66.8,29.20,South,180,1.6,2.5,88,0.00,,---,0.00,VWS V14.01,2013-05-18 13:35:00,
2013-05-18 08:41:00,70.7,67.0,29.20,WSW,248,2.0,2.0,88,0.00,,---,0.00,VWS V14.01,2013-05-18 13:41:00,
2013-05-18 08:46:00,71.1,67.0,29.20,SSW,202,3.1,3.1,87,0.00,,---,0.00,VWS V14.01,2013-05-18 13:46:00,
2013-05-18 08:51:00,71.1,67.0,29.20,East,90,2.2,2.2,87,0.00,,---,0.00,VWS V14.01,2013-05-18 13:51:00,
2013-05-18 08:56:00,71.1,66.3,29.23,South,180,2.7,2.7,85,0.00,,---,0.00,VWS V14.01,2013-05-18 13:56:00,
2013-05-18 09:01:00,71.6,66.9,29.23,SW,225,2.5,2.7,85,0.00,,---,0.00,VWS V14.01,2013-05-18 14:01:00,
2013-05-18 09:06:00,71.8,67.0,29.23,South,180,2.2,2.2,85,0.00,,---,0.00,VWS V14.01,2013-05-18 14:06:00,
2013-05-18 09:11:00,71.6,66.5,29.23,West,270,0.0,4.3,84,0.00,,---,0.00,VWS V14.01,2013-05-18 14:11:00,
2013-05-18 09:16:00,71.4,66.3,29.23,South,180,1.3,1.3,84,0.00,,---,0.00,VWS V14.01,2013-05-18 14:16:00,
2013-05-18 09:21:00,71.4,66.3,29.23,South,180,0.0,0.0,84,0.00,,---,0.00,VWS V14.01,2013-05-18 14:21:00,
2013-05-18 09:26:00,72.1,66.7,29.23,ESE,112,2.2,2.2,83,0.00,,---,0.00,VWS V14.01,2013-05-18 14:26:00,
2013-05-18 09:31:00,72.9,67.1,29.23,ENE,68,2.5,5.4,82,0.00,,---,0.00,VWS V14.01,2013-05-18 14:31:00,
2013-05-18 09:36:00,72.9,67.4,29.23,SSW,202,1.3,1.3,83,0.00,,---,0.00,VWS V14.01,2013-05-18 14:36:00,
2013-05-18 09:42:00,73.2,67.4,29.20,SSE,158,1.6,2.7,82,0.00,,---,0.00,VWS V14.01,2013-05-18 14:42:00,
2013-05-18 09:47:00,73.6,67.4,29.20,SW,225,0.9,0.9,81,0.00,,---,0.00,VWS V14.01,2013-05-18 14:47:00,
2013-05-18 09:52:00,73.4,67.2,29.20,SE,135,4.0,4.0,81,0.00,,---,0.00,VWS V14.01,2013-05-18 14:52:00,
2013-05-18 09:57:00,73.0,66.9,29.20,East,90,0.0,3.6,81,0.00,,---,0.00,VWS V14.01,2013-05-18 14:57:00,
2013-05-18 10:02:00,73.4,66.9,29.20,NE,45,0.9,0.9,80,0.00,,---,0.00,VWS V14.01,2013-05-18 15:02:00,
2013-05-18 10:07:00,73.4,66.9,29.20,NE,45,3.6,3.6,80,0.00,,---,0.00,VWS V14.01,2013-05-18 15:07:00,
2013-05-18 10:12:00,73.6,67.0,29.20,ENE,68,0.0,4.9,80,0.00,,---,0.00,VWS V14.01,2013-05-18 15:12:00,
2013-05-18 10:17:00,73.8,66.5,29.20,SE,135,2.9,2.9,78,0.00,,---,0.00,VWS V14.01,2013-05-18 15:17:00,
2013-05-18 10:22:00,74.1,67.2,29.20,SSE,158,2.9,2.9,79,0.00,,---,0.00,VWS V14.01,2013-05-18 15:22:00,
2013-05-18 10:27:00,74.8,67.2,29.20,SSE,158,0.0,6.5,77,0.00,,---,0.00,VWS V14.01,2013-05-18 15:27:00,
2013-05-18 10:32:00,74.8,66.8,29.20,SSW,202,2.7,2.7,76,0.00,,---,0.00,VWS V14.01,2013-05-18 15:32:00,
2013-05-18 10:37:00,75.7,67.6,29.20,South,180,2.7,2.7,76,0.00,,---,0.00,VWS V14.01,2013-05-18 15:37:00,
2013-05-18 10:42:00,75.7,66.9,29.20,South,180,4.3,4.3,74,0.00,,---,0.00,VWS V14.01,2013-05-18 15:42:00,
2013-05-18 10:47:00,76.6,68.5,29.20,SW,225,3.4,3.4,76,0.00,,---,0.00,VWS V14.01,2013-05-18 15:47:00,
2013-05-18 10:52:00,76.6,67.3,29.20,SSE,158,4.0,5.8,73,0.00,,---,0.00,VWS V14.01,2013-05-18 15:52:00,
2013-05-18 10:57:00,76.8,67.5,29.20,SE,135,3.6,3.6,73,0.00,,---,0.00,VWS V14.01,2013-05-18 15:57:00,
2013-05-18 11:02:00,77.0,67.3,29.20,SSW,202,0.0,2.7,72,0.00,,---,0.00,VWS V14.01,2013-05-18 16:02:00,
2013-05-18 11:07:00,76.6,66.5,29.20,ESE,112,2.0,2.0,71,0.00,,---,0.00,VWS V14.01,2013-05-18 16:07:00,
2013-05-18 11:12:00,77.5,67.8,29.20,SSW,202,2.9,3.8,72,0.00,,---,0.00,VWS V14.01,2013-05-18 16:12:00,
2013-05-18 11:17:00,77.0,66.9,29.20,SSW,202,3.6,3.6,71,0.00,,---,0.00,VWS V14.01,2013-05-18 16:17:00,
2013-05-18 11:23:00,76.8,66.7,29.20,SE,135,2.2,2.2,71,0.00,,---,0.00,VWS V14.01,2013-05-18 16:23:00,
2013-05-18 11:28:00,77.4,67.6,29.20,SE,135,2.7,2.7,72,0.00,,---,0.00,VWS V14.01,2013-05-18 16:28:00,
2013-05-18 11:33:00,77.9,67.3,29.20,ESE,112,4.3,4.3,70,0.00,,---,0.00,VWS V14.01,2013-05-18 16:33:00,
2013-05-18 11:38:00,78.3,67.7,29.20,SW,225,0.0,1.3,70,0.00,,---,0.00,VWS V14.01,2013-05-18 16:38:00,
2013-05-18 11:43:00,77.9,66.9,29.20,East,90,1.3,2.5,69,0.00,,---,0.00,VWS V14.01,2013-05-18 16:43:00,
2013-05-18 11:48:00,78.4,67.4,29.20,SE,135,5.4,5.4,69,0.00,,---,0.00,VWS V14.01,2013-05-18 16:48:00,
2013-05-18 11:53:00,78.4,67.4,29.20,SE,135,4.0,4.0,69,0.00,,---,0.00,VWS V14.01,2013-05-18 16:53:00,
2013-05-18 11:58:00,78.3,66.8,29.20,South,180,4.0,4.0,68,0.00,,---,0.00,VWS V14.01,2013-05-18 16:58:00,
2013-05-18 12:03:00,78.1,66.7,29.20,SE,135,1.3,1.3,68,0.00,,---,0.00,VWS V14.01,2013-05-18 17:03:00,
2013-05-18 12:08:00,78.1,66.7,29.20,SSW,202,2.9,2.9,68,0.00,,---,0.00,VWS V14.01,2013-05-18 17:08:00,
2013-05-18 12:13:00,78.3,66.8,29.20,SE,135,5.6,5.6,68,0.00,,---,0.00,VWS V14.01,2013-05-18 17:13:00,
2013-05-18 12:19:00,78.4,67.0,29.20,SSW,202,6.5,6.5,68,0.00,,---,0.00,VWS V14.01,2013-05-18 17:19:00,
2013-05-18 12:24:00,78.4,67.0,29.20,SW,225,3.4,3.4,68,0.00,,---,0.00,VWS V14.01,2013-05-18 17:24:00,
2013-05-18 12:29:00,78.4,66.6,29.20,SSW,202,0.0,0.0,67,0.00,,---,0.00,VWS V14.01,2013-05-18 17:29:00,
2013-05-18 12:34:00,78.3,66.4,29.20,SE,135,2.7,4.3,67,0.00,,---,0.00,VWS V14.01,2013-05-18 17:34:00,
2013-05-18 12:39:00,78.3,66.4,29.20,East,90,1.6,2.0,67,0.00,,---,0.00,VWS V14.01,2013-05-18 17:39:00,
2013-05-18 12:44:00,78.4,66.2,29.20,SE,135,2.9,3.1,66,0.00,,---,0.00,VWS V14.01,2013-05-18 17:44:00,
2013-05-18 12:49:00,78.6,66.8,29.20,South,180,3.6,3.6,67,0.00,,---,0.00,VWS V14.01,2013-05-18 17:49:00,
2013-05-18 12:54:00,78.8,66.5,29.20,SE,135,3.4,3.4,66,0.00,,---,0.00,VWS V14.01,2013-05-18 17:54:00,
2013-05-18 12:59:00,78.6,66.3,29.20,ESE,112,0.0,0.0,66,0.00,,---,0.00,VWS V14.01,2013-05-18 17:59:00,
2013-05-18 13:04:00,78.4,66.2,29.20,ESE,112,1.1,1.1,66,0.00,,---,0.00,VWS V14.01,2013-05-18 18:04:00,
2013-05-18 13:09:00,78.8,66.5,29.17,East,90,0.0,0.0,66,0.00,,---,0.00,VWS V14.01,2013-05-18 18:09:00,
2013-05-18 13:14:00,79.2,66.8,29.17,SSW,202,2.7,2.7,66,0.00,,---,0.00,VWS V14.01,2013-05-18 18:14:00,
2013-05-18 13:19:00,79.5,66.7,29.17,SSE,158,2.7,2.7,65,0.00,,---,0.00,VWS V14.01,2013-05-18 18:19:00,
2013-05-18 13:25:00,80.1,67.2,29.17,ENE,68,2.5,2.7,65,0.00,,---,0.00,VWS V14.01,2013-05-18 18:25:00,
2013-05-18 13:30:00,80.1,67.2,29.17,SSW,202,4.3,4.3,65,0.00,,---,0.00,VWS V14.01,2013-05-18 18:30:00,
2013-05-18 13:35:00,80.1,67.2,29.17,SE,135,3.8,3.8,65,0.00,,---,0.00,VWS V14.01,2013-05-18 18:35:00,
2013-05-18 13:40:00,80.4,66.7,29.17,South,180,3.4,3.4,63,0.00,,---,0.00,VWS V14.01,2013-05-18 18:40:00,
2013-05-18 13:45:00,80.4,67.1,29.17,East,90,2.0,2.0,64,0.00,,---,0.00,VWS V14.01,2013-05-18 18:45:00,
2013-05-18 13:50:00,79.9,65.7,29.17,East,90,2.7,2.7,62,0.00,,---,0.00,VWS V14.01,2013-05-18 18:50:00,
2013-05-18 13:55:00,80.2,66.5,29.17,SSE,158,2.5,2.5,63,0.00,,---,0.00,VWS V14.01,2013-05-18 18:55:00,
2013-05-18 14:00:00,80.2,66.1,29.17,SSW,202,2.9,2.9,62,0.00,,---,0.00,VWS V14.01,2013-05-18 19:00:00,
2013-05-18 14:05:00,79.9,64.8,29.17,East,90,2.7,2.7,60,0.00,,---,0.00,VWS V14.01,2013-05-18 19:05:00,
2013-05-18 14:10:00,79.2,65.0,29.17,East,90,1.3,1.3,62,0.00,,---,0.00,VWS V14.01,2013-05-18 19:10:00,
2013-05-18 14:15:00,79.9,66.2,29.17,East,90,2.0,3.6,63,0.00,,---,0.00,VWS V14.01,2013-05-18 19:15:00,
2013-05-18 14:20:00,80.4,66.2,29.17,East,90,2.9,2.9,62,0.00,,---,0.00,VWS V14.01,2013-05-18 19:20:00,
2013-05-18 14:25:00,80.1,65.9,29.17,SSW,202,3.8,5.6,62,0.00,,---,0.00,VWS V14.01,2013-05-18 19:25:00,
2013-05-18 14:31:00,79.9,65.2,29.17,East,90,4.9,4.9,61,0.00,,---,0.00,VWS V14.01,2013-05-18 19:31:00,
2013-05-18 14:36:00,80.1,65.4,29.17,ENE,68,2.7,2.7,61,0.00,,---,0.00,VWS V14.01,2013-05-18 19:36:00,
2013-05-18 14:41:00,80.2,65.1,29.17,South,180,0.0,3.8,60,0.00,,---,0.00,VWS V14.01,2013-05-18 19:41:00,
2013-05-18 14:46:00,80.4,62.8,29.17,NNE,22,4.0,4.0,55,0.00,,---,0.00,VWS V14.01,2013-05-18 19:46:00,
2013-05-18 14:51:00,80.2,64.1,29.17,ESE,112,2.0,2.7,58,0.00,,---,0.00,VWS V14.01,2013-05-18 19:51:00,
2013-05-18 14:56:00,80.1,64.5,29.14,ENE,68,8.5,8.5,59,0.00,,---,0.00,VWS V14.01,2013-05-18 19:56:00,
2013-05-18 15:01:00,79.7,64.1,29.14,SSW,202,2.7,2.7,59,0.00,,---,0.00,VWS V14.01,2013-05-18 20:01:00,
2013-05-18 15:06:00,80.1,64.9,29.14,South,180,1.3,1.6,60,0.00,,---,0.00,VWS V14.01,2013-05-18 20:06:00,
2013-05-18 15:11:00,80.1,65.4,29.14,South,180,0.0,0.0,61,0.00,,---,0.00,VWS V14.01,2013-05-18 20:11:00,
2013-05-18 15:16:00,80.6,65.0,29.14,SE,135,0.0,1.3,59,0.00,,---,0.00,VWS V14.01,2013-05-18 20:16:00,
2013-05-18 15:21:00,81.3,65.6,29.14,South,180,2.5,2.5,59,0.00,,---,0.00,VWS V14.01,2013-05-18 20:21:00,
2013-05-18 15:26:00,81.9,66.1,29.14,SSW,202,2.9,2.9,59,0.00,,---,0.00,VWS V14.01,2013-05-18 20:26:00,
2013-05-18 15:31:00,82.8,66.5,29.14,SE,135,6.3,6.3,58,0.00,,---,0.00,VWS V14.01,2013-05-18 20:31:00,
2013-05-18 15:37:00,82.8,66.5,29.14,South,180,2.9,2.9,58,0.00,,---,0.00,VWS V14.01,2013-05-18 20:37:00,
2013-05-18 15:42:00,83.5,67.2,29.14,East,90,2.2,3.6,58,0.00,,---,0.00,VWS V14.01,2013-05-18 20:42:00,
2013-05-18 15:47:00,83.3,66.5,29.14,NE,45,4.9,4.9,57,0.00,,---,0.00,VWS V14.01,2013-05-18 20:47:00,
2013-05-18 15:52:00,82.2,64.5,29.14,East,90,1.6,1.6,55,0.00,,---,0.00,VWS V14.01,2013-05-18 20:52:00,
2013-05-18 15:57:00,81.3,63.1,29.14,NE,45,2.7,2.7,54,0.00,,---,0.00,VWS V14.01,2013-05-18 20:57:00,
2013-05-18 16:02:00,81.3,63.6,29.14,ENE,68,2.9,4.0,55,0.00,,---,0.00,VWS V14.01,2013-05-18 21:02:00,
2013-05-18 16:07:00,81.7,64.5,29.14,SSE,158,2.7,2.7,56,0.00,,---,0.00,VWS V14.01,2013-05-18 21:07:00,
2013-05-18 16:12:00,81.7,64.0,29.14,SSE,158,2.7,2.7,55,0.00,,---,0.00,VWS V14.01,2013-05-18 21:12:00,
2013-05-18 16:17:00,81.5,62.7,29.14,SE,135,3.4,3.4,53,0.00,,---,0.00,VWS V14.01,2013-05-18 21:17:00,
2013-05-18 16:22:00,81.3,63.6,29.14,NNE,22,2.9,2.9,55,0.00,,---,0.00,VWS V14.01,2013-05-18 21:22:00,
2013-05-18 16:27:00,81.1,62.9,29.14,East,90,2.0,2.5,54,0.00,,---,0.00,VWS V14.01,2013-05-18 21:27:00,
2013-05-18 16:33:00,81.1,63.5,29.14,NE,45,2.0,2.0,55,0.00,,---,0.00,VWS V14.01,2013-05-18 21:33:00,
2013-05-18 16:38:00,81.3,63.1,29.14,SW,225,0.9,3.4,54,0.00,,---,0.00,VWS V14.01,2013-05-18 21:38:00,
2013-05-18 16:43:00,81.1,62.9,29.14,SE,135,3.4,3.8,54,0.00,,---,0.00,VWS V14.01,2013-05-18 21:43:00,
2013-05-18 16:48:00,81.1,62.9,29.14,SSW,202,2.7,2.7,54,0.00,,---,0.00,VWS V14.01,2013-05-18 21:48:00,
2013-05-18 16:53:00,81.1,62.9,29.14,SE,135,1.1,1.1,54,0.00,,---,0.00,VWS V14.01,2013-05-18 21:53:00,
2013-05-18 16:58:00,81.1,62.9,29.14,SE,135,0.0,0.0,54,0.00,,---,0.00,VWS V14.01,2013-05-18 21:58:00,
2013-05-18 17:03:00,81.3,62.6,29.14,SSE,158,1.3,1.3,53,0.00,,---,0.00,VWS V14.01,2013-05-18 22:03:00,
2013-05-18 17:08:00,81.5,63.8,29.14,ENE,68,2.2,2.2,55,0.00,,---,0.00,VWS V14.01,2013-05-18 22:08:00,
2013-05-18 17:13:00,81.3,63.1,29.14,SE,135,5.4,5.4,54,0.00,,---,0.00,VWS V14.01,2013-05-18 22:13:00,
2013-05-18 17:18:00,81.1,62.9,29.14,South,180,0.0,0.0,54,0.00,,---,0.00,VWS V14.01,2013-05-18 22:18:00,
2013-05-18 17:23:00,81.1,62.9,29.14,South,180,1.3,1.3,54,0.00,,---,0.00,VWS V14.01,2013-05-18 22:23:00,
2013-05-18 17:28:00,81.1,63.5,29.14,SE,135,2.0,2.5,55,0.00,,---,0.00,VWS V14.01,2013-05-18 22:28:00,
2013-05-18 17:34:00,81.0,62.8,29.14,ENE,68,1.6,1.6,54,0.00,,---,0.00,VWS V14.01,2013-05-18 22:34:00,
2013-05-18 17:39:00,81.0,62.8,29.14,East,90,1.1,1.3,54,0.00,,---,0.00,VWS V14.01,2013-05-18 22:39:00,
2013-05-18 17:44:00,80.8,63.1,29.14,SE,135,2.5,2.5,55,0.00,,---,0.00,VWS V14.01,2013-05-18 22:44:00,
2013-05-18 17:49:00,80.8,62.6,29.14,ESE,112,1.6,1.6,54,0.00,,---,0.00,VWS V14.01,2013-05-18 22:49:00,
2013-05-18 17:54:00,80.8,63.1,29.12,East,90,0.0,0.0,55,0.00,,---,0.00,VWS V14.01,2013-05-18 22:54:00,
2013-05-18 17:59:00,81.0,63.3,29.12,SE,135,2.5,3.6,55,0.00,,---,0.00,VWS V14.01,2013-05-18 22:59:00,
2013-05-18 18:04:00,80.8,62.6,29.12,SE,135,2.0,2.0,54,0.00,,---,0.00,VWS V14.01,2013-05-18 23:04:00,
2013-05-18 18:09:00,80.8,62.6,29.12,ESE,112,0.0,0.0,54,0.00,,---,0.00,VWS V14.01,2013-05-18 23:09:00,
2013-05-18 18:14:00,80.8,62.6,29.12,SE,135,1.6,1.6,54,0.00,,---,0.00,VWS V14.01,2013-05-18 23:14:00,
2013-05-18 18:19:00,80.8,62.6,29.12,East,90,0.0,1.3,54,0.00,,---,0.00,VWS V14.01,2013-05-18 23:19:00,
2013-05-18 18:25:00,80.8,62.6,29.12,SSE,158,1.1,1.1,54,0.00,,---,0.00,VWS V14.01,2013-05-18 23:25:00,
2013-05-18 18:30:00,81.0,62.8,29.12,SE,135,1.6,2.0,54,0.00,,---,0.00,VWS V14.01,2013-05-18 23:30:00,
2013-05-18 18:35:00,81.0,62.8,29.12,NE,45,2.0,4.7,54,0.00,,---,0.00,VWS V14.01,2013-05-18 23:35:00,
2013-05-18 18:40:00,80.4,62.3,29.12,South,180,0.0,0.0,54,0.00,,---,0.00,VWS V14.01,2013-05-18 23:40:00,
2013-05-18 18:45:00,80.2,62.1,29.12,SE,135,3.8,3.8,54,0.00,,---,0.00,VWS V14.01,2013-05-18 23:45:00,
2013-05-18 18:50:00,80.2,62.1,29.12,ENE,68,2.0,2.0,54,0.00,,---,0.00,VWS V14.01,2013-05-18 23:50:00,
2013-05-18 18:55:00,80.2,62.1,29.12,NNE,22,3.6,3.6,54,0.00,,---,0.00,VWS V14.01,2013-05-18 23:55:00,
2013-05-18 19:00:00,79.9,61.8,29.12,SSE,158,1.6,1.6,54,0.00,,---,0.00,VWS V14.01,2013-05-19 00:00:00,
2013-05-18 19:05:00,79.7,61.6,29.12,SSE,158,1.6,1.6,54,0.00,,---,0.00,VWS V14.01,2013-05-19 00:05:00,
2013-05-18 19:10:00,79.5,62.0,29.12,South,180,1.6,4.7,55,0.00,,---,0.00,VWS V14.01,2013-05-19 00:10:00,
2013-05-18 19:15:00,79.3,61.8,29.12,SSE,158,0.0,0.0,55,0.00,,---,0.00,VWS V14.01,2013-05-19 00:15:00,
2013-05-18 19:21:00,79.2,61.6,29.12,East,90,1.3,1.3,55,0.00,,---,0.00,VWS V14.01,2013-05-19 00:21:00,
2013-05-18 19:26:00,78.8,61.3,29.12,South,180,0.0,0.0,55,0.00,,---,0.00,VWS V14.01,2013-05-19 00:26:00,
2013-05-18 19:31:00,78.4,61.5,29.12,East,90,1.1,1.1,56,0.00,,---,0.00,VWS V14.01,2013-05-19 00:31:00,
2013-05-18 19:36:00,78.1,61.6,29.12,ESE,112,0.9,0.9,57,0.00,,---,0.00,VWS V14.01,2013-05-19 00:36:00,
2013-05-18 19:41:00,77.9,61.5,29.12,SE,135,0.0,0.0,57,0.00,,---,0.00,VWS V14.01,2013-05-19 00:41:00,
2013-05-18 19:46:00,77.5,61.1,29.12,ESE,112,0.0,0.0,57,0.00,,---,0.00,VWS V14.01,2013-05-19 00:46:00,
2013-05-18 19:51:00,77.2,61.3,29.12,ESE,112,0.0,0.0,58,0.00,,---,0.00,VWS V14.01,2013-05-19 00:51:00,
2013-05-18 19:56:00,77.0,61.1,29.12,ESE,112,0.0,0.0,58,0.00,,---,0.00,VWS V14.01,2013-05-19 00:56:00,
2013-05-18 20:01:00,76.8,61.4,29.12,ESE,112,0.0,0.0,59,0.00,,---,0.00,VWS V14.01,2013-05-19 01:01:00,
2013-05-18 20:06:00,76.5,61.1,29.12,ESE,112,0.0,0.0,59,0.00,,---,0.00,VWS V14.01,2013-05-19 01:06:00,
2013-05-18 20:11:00,75.9,61.0,29.12,ESE,112,0.0,0.0,60,0.00,,---,0.00,VWS V14.01,2013-05-19 01:11:00,
2013-05-18 20:16:00,75.7,60.9,29.12,ESE,112,0.0,0.0,60,0.00,,---,0.00,VWS V14.01,2013-05-19 01:16:00,
2013-05-18 20:21:00,75.4,60.5,29.12,ESE,112,0.0,0.0,60,0.00,,---,0.00,VWS V14.01,2013-05-19 01:21:00,
2013-05-18 20:27:00,74.8,61.0,29.12,ESE,112,0.0,0.0,62,0.00,,---,0.00,VWS V14.01,2013-05-19 01:27:00,
2013-05-18 20:32:00,74.7,60.8,29.12,ESE,112,0.0,0.0,62,0.00,,---,0.00,VWS V14.01,2013-05-19 01:32:00,
2013-05-18 20:37:00,74.1,60.7,29.12,ESE,112,0.0,0.0,63,0.00,,---,0.00,VWS V14.01,2013-05-19 01:37:00,
2013-05-18 20:42:00,73.9,60.6,29.12,ESE,112,0.0,0.0,63,0.00,,---,0.00,VWS V14.01,2013-05-19 01:42:00,
2013-05-18 20:47:00,73.8,60.4,29.12,ESE,112,0.0,0.0,63,0.00,,---,0.00,VWS V14.01,2013-05-19 01:47:00,
2013-05-18 20:52:00,73.4,60.5,29.12,ESE,112,0.0,0.0,64,0.00,,---,0.00,VWS V14.01,2013-05-19 01:52:00,
2013-05-18 20:57:00,73.0,60.6,29.12,ESE,112,0.0,0.0,65,0.00,,---,0.00,VWS V14.01,2013-05-19 01:57:00,
2013-05-18 21:02:00,72.9,60.4,29.12,ESE,112,0.0,0.0,65,0.00,,---,0.00,VWS V14.01,2013-05-19 02:02:00,
2013-05-18 21:07:00,72.7,60.7,29.12,East,90,0.0,0.0,66,0.00,,---,0.00,VWS V14.01,2013-05-19 02:07:00,
2013-05-18 21:12:00,72.5,60.5,29.12,ENE,68,0.0,0.0,66,0.00,,---,0.00,VWS V14.01,2013-05-19 02:12:00,
2013-05-18 21:17:00,72.3,60.3,29.12,East,90,0.0,0.0,66,0.00,,---,0.00,VWS V14.01,2013-05-19 02:17:00,
2013-05-18 21:22:00,72.0,60.0,29.12,NE,45,0.0,0.0,66,0.00,,---,0.00,VWS V14.01,2013-05-19 02:22:00,
2013-05-18 21:27:00,72.0,60.4,29.12,ESE,112,0.0,0.0,67,0.00,,---,0.00,VWS V14.01,2013-05-19 02:27:00,
2013-05-18 21:32:00,71.8,60.2,29.12,East,90,0.0,0.0,67,0.00,,---,0.00,VWS V14.01,2013-05-19 02:32:00,
2013-05-18 21:37:00,71.6,60.1,29.12,ENE,68,0.0,0.0,67,0.00,,---,0.00,VWS V14.01,2013-05-19 02:37:00,
2013-05-18 21:42:00,71.6,60.1,29.12,ENE,68,0.0,0.0,67,0.00,,---,0.00,VWS V14.01,2013-05-19 02:42:00,
2013-05-18 21:47:00,71.4,59.9,29.12,ENE,68,0.0,0.0,67,0.00,,---,0.00,VWS V14.01,2013-05-19 02:47:00,
2013-05-18 21:52:00,71.2,60.2,29.12,SE,135,0.0,0.0,68,0.00,,---,0.00,VWS V14.01,2013-05-19 02:52:00,
2013-05-18 21:58:00,71.1,60.0,29.12,SE,135,0.0,0.0,68,0.00,,---,0.00,VWS V14.01,2013-05-19 02:58:00,
2013-05-18 22:03:00,71.1,60.4,29.12,SE,135,0.0,0.0,69,0.00,,---,0.00,VWS V14.01,2013-05-19 03:03:00,
2013-05-18 22:08:00,70.9,60.2,29.12,ENE,68,0.0,0.0,69,0.00,,---,0.00,VWS V14.01,2013-05-19 03:08:00,
2013-05-18 22:13:00,70.7,60.0,29.12,ENE,68,0.0,0.0,69,0.00,,---,0.00,VWS V14.01,2013-05-19 03:13:00,
2013-05-18 22:18:00,70.5,59.9,29.12,East,90,0.0,0.0,69,0.00,,---,0.00,VWS V14.01,2013-05-19 03:18:00,
2013-05-18 22:23:00,70.3,60.1,29.12,East,90,0.0,0.0,70,0.00,,---,0.00,VWS V14.01,2013-05-19 03:23:00,
2013-05-18 22:28:00,70.2,59.9,29.12,East,90,0.0,0.0,70,0.00,,---,0.00,VWS V14.01,2013-05-19 03:28:00,
2013-05-18 22:33:00,70.0,59.8,29.12,ESE,112,0.0,0.0,70,0.00,,---,0.00,VWS V14.01,2013-05-19 03:33:00,
2013-05-18 22:38:00,70.0,59.8,29.12,ESE,112,0.0,0.0,70,0.00,,---,0.00,VWS V14.01,2013-05-19 03:38:00,
2013-05-18 22:43:00,69.6,59.8,29.12,ESE,112,0.0,0.0,71,0.00,,---,0.00,VWS V14.01,2013-05-19 03:43:00,
2013-05-18 22:48:00,69.4,60.0,29.12,East,90,0.0,0.0,72,0.00,,---,0.00,VWS V14.01,2013-05-19 03:48:00,
2013-05-18 22:53:00,69.4,60.0,29.12,East,90,0.0,0.0,72,0.00,,---,0.00,VWS V14.01,2013-05-19 03:53:00,
2013-05-18 22:58:00,69.3,60.2,29.12,ENE,68,1.3,1.3,73,0.00,,---,0.00,VWS V14.01,2013-05-19 03:58:00,
2013-05-18 23:01:00,69.3,60.2,29.12,ESE,112,0.0,0.0,73,0.00,,---,0.00,VWS V14.01,2013-05-19 04:01:00,
2013-05-18 23:02:00,69.3,60.2,29.12,ESE,112,0.0,0.0,73,0.00,,---,0.00,VWS V14.01,2013-05-19 04:02:00,
2013-05-18 23:07:00,69.3,60.6,29.12,SE,135,1.1,1.3,74,0.00,,---,0.00,VWS V14.01,2013-05-19 04:07:00,
2013-05-18 23:12:00,69.3,60.2,29.09,SE,135,0.0,3.1,73,0.00,,---,0.00,VWS V14.01,2013-05-19 04:12:00,
2013-05-18 23:17:00,69.3,60.2,29.09,ESE,112,3.6,3.6,73,0.00,,---,0.00,VWS V14.01,2013-05-19 04:17:00,
2013-05-18 23:22:00,69.1,60.1,29.09,South,180,0.0,0.0,73,0.00,,---,0.00,VWS V14.01,2013-05-19 04:22:00,
2013-05-18 23:27:00,68.9,60.3,29.12,South,180,0.0,0.0,74,0.00,,---,0.00,VWS V14.01,2013-05-19 04:27:00,
2013-05-18 23:32:00,68.9,60.7,29.12,South,180,0.0,0.0,75,0.00,,---,0.00,VWS V14.01,2013-05-19 04:32:00,
2013-05-18 23:37:00,68.7,60.5,29.12,East,90,2.7,2.7,75,0.00,,---,0.00,VWS V14.01,2013-05-19 04:37:00,
2013-05-18 23:42:00,68.7,60.5,29.12,ESE,112,0.0,0.0,75,0.00,,---,0.00,VWS V14.01,2013-05-19 04:42:00,
2013-05-18 23:47:00,68.7,60.5,29.12,SW,225,0.0,0.0,75,0.00,,---,0.00,VWS V14.01,2013-05-19 04:47:00,
2013-05-18 23:53:00,68.7,60.5,29.12,SSW,202,1.3,1.3,75,0.00,,---,0.00,VWS V14.01,2013-05-19 04:53:00,
2013-05-18 23:58:00,68.7,60.5,29.12,South,180,0.0,0.0,75,0.00,,---,0.00,VWS V14.01,2013-05-19 04:58:00,